Time;durP1;ratioP1;P1;durP2;ratioP2;P2;SDS_P1;SDS_P2;PMS_P1;PMS_P2;Temp;Humidity;BMP_temperature;BMP_pressure;BME280_temperature;BME280_humidity;BME280_pressure;Samples;Min_cycle;Max_cycle;Signal;HPM_P1;HPM_P2
2024/03/16 00:02:04;;;;;;;1.02;0.52;;;10.30;99.90;;;;;;5059696;28;20040;-65
2024/03/16 00:04:32;;;;;;;1.33;0.50;;;10.40;99.90;;;;;;5057121;28;20051;-65
2024/03/16 00:06:59;;;;;;;1.25;0.50;;;10.40;99.90;;;;;;5062225;28;20045;-65
2024/03/16 00:09:25;;;;;;;1.88;0.50;;;10.40;99.90;;;;;;5062669;28;20190;-65
2024/03/16 00:11:53;;;;;;;1.10;0.52;;;10.40;99.90;;;;;;5060893;28;20057;-65
2024/03/16 00:14:20;;;;;;;0.98;0.60;;;10.50;99.90;;;;;;5060544;28;20086;-65
2024/03/16 00:16:46;;;;;;;3.40;0.70;;;10.50;99.90;;;;;;5064398;28;20044;-65
2024/03/16 00:19:13;;;;;;;1.65;0.60;;;10.50;99.90;;;;;;5051015;28;20044;-65
2024/03/16 00:21:40;;;;;;;3.65;0.60;;;10.50;99.90;;;;;;5062726;28;20569;-65
2024/03/16 00:24:10;;;;;;;3.65;0.80;;;10.50;99.90;;;;;;5066823;28;20049;-65
2024/03/16 00:26:37;;;;;;;;;;;10.50;99.90;;;;;;5075561;28;20055;-65
2024/03/16 00:29:07;;;;;;;1.17;0.70;;;10.40;99.90;;;;;;5073811;28;20450;-65
2024/03/16 00:31:37;;;;;;;2.97;0.88;;;10.30;99.90;;;;;;5060716;28;20436;-65
2024/03/16 00:34:04;;;;;;;2.15;0.63;;;10.20;99.90;;;;;;5069921;28;20148;-65
2024/03/16 00:36:31;;;;;;;3.13;0.90;;;10.10;99.90;;;;;;5071521;28;20045;-65
2024/03/16 00:38:57;;;;;;;1.45;0.75;;;10.20;99.90;;;;;;5071537;28;20051;-65
2024/03/16 00:41:24;;;;;;;0.90;0.70;;;10.30;99.90;;;;;;5067111;28;20123;-65
2024/03/16 00:43:51;;;;;;;2.95;0.90;;;10.30;99.90;;;;;;5063453;28;20056;-65
2024/03/16 00:46:18;;;;;;;2.72;1.08;;;10.20;99.90;;;;;;5047924;28;20472;-65
2024/03/16 00:48:46;;;;;;;4.30;1.08;;;10.20;99.90;;;;;;5069899;28;20052;-65
2024/03/16 00:51:13;;;;;;;4.75;1.10;;;10.10;99.90;;;;;;5066481;28;20041;-65
2024/03/16 00:53:43;;;;;;;5.82;1.35;;;10.10;99.90;;;;;;5034967;28;20580;-65
2024/03/16 00:56:09;;;;;;;2.67;0.98;;;10.20;99.90;;;;;;5068260;28;20055;-65
2024/03/16 00:58:36;;;;;;;5.30;1.40;;;10.20;99.90;;;;;;5065126;28;20072;-65
2024/03/16 01:01:03;;;;;;;3.25;1.27;;;10.20;99.90;;;;;;5070199;28;20055;-65
2024/03/16 01:03:30;;;;;;;5.70;1.40;;;10.20;99.90;;;;;;5067184;28;20084;-65
2024/03/16 01:05:57;;;;;;;5.13;1.63;;;10.30;99.90;;;;;;5066779;28;20052;-65
2024/03/16 01:08:23;;;;;;;3.53;1.15;;;10.40;99.90;;;;;;5065939;28;20045;-65
2024/03/16 01:10:54;;;;;;;6.65;1.50;;;10.40;99.90;;;;;;5067311;28;20045;-65
2024/03/16 01:13:22;;;;;;;3.45;1.30;;;10.40;99.90;;;;;;5060877;28;20049;-65
2024/03/16 01:15:50;;;;;;;5.25;1.38;;;10.50;99.90;;;;;;5067644;28;20049;-65
2024/03/16 01:18:17;;;;;;;7.03;1.60;;;10.50;99.90;;;;;;5068877;28;20048;-65
2024/03/16 01:20:44;;;;;;;6.70;1.33;;;10.60;99.90;;;;;;5064668;28;20493;-65
2024/03/16 01:23:13;;;;;;;2.03;1.33;;;10.50;99.90;;;;;;5066884;28;20053;-65
2024/03/16 01:25:40;;;;;;;3.60;1.23;;;10.50;99.90;;;;;;5068177;28;20064;-65
2024/03/16 01:28:06;;;;;;;3.25;1.35;;;10.50;99.90;;;;;;5069510;28;20094;-65
2024/03/16 01:30:33;;;;;;;3.72;1.45;;;10.50;99.90;;;;;;5047712;28;20095;-65
2024/03/16 01:33:00;;;;;;;2.25;1.20;;;10.50;99.90;;;;;;5068456;28;20077;-65
2024/03/16 01:35:27;;;;;;;2.00;1.17;;;10.60;99.90;;;;;;5065060;28;20084;-65
2024/03/16 01:37:54;;;;;;;3.30;1.13;;;10.60;99.90;;;;;;5068230;28;20048;-65
2024/03/16 01:40:24;;;;;;;5.57;1.20;;;10.60;99.90;;;;;;5067152;28;21473;-65
2024/03/16 01:42:54;;;;;;;6.70;1.63;;;10.70;99.90;;;;;;5061030;28;20059;-65
2024/03/16 01:45:21;;;;;;;4.82;1.50;;;10.70;99.90;;;;;;5062299;28;20505;-65
2024/03/16 01:47:48;;;;;;;4.70;1.20;;;10.80;99.90;;;;;;5063517;28;20394;-65
2024/03/16 01:50:18;;;;;;;3.60;1.35;;;10.80;99.90;;;;;;5066378;28;20483;-65
2024/03/16 01:52:46;;;;;;;;;;;10.90;99.90;;;;;;5063177;28;20040;-65
2024/03/16 01:55:15;;;;;;;3.25;1.13;;;10.90;99.90;;;;;;5063641;28;19994;-65
2024/03/16 01:57:42;;;;;;;3.35;1.30;;;10.90;99.90;;;;;;5043726;28;20113;-65
2024/03/16 02:00:11;;;;;;;6.28;1.55;;;11.00;99.90;;;;;;5064208;28;20045;-65
2024/03/16 02:02:39;;;;;;;8.30;1.70;;;10.90;99.90;;;;;;5066142;28;20053;-65
2024/03/16 02:05:07;;;;;;;3.72;1.60;;;11.00;99.90;;;;;;5059557;28;20084;-65
2024/03/16 02:07:37;;;;;;;5.93;1.67;;;11.00;99.90;;;;;;5069110;28;20494;-65
2024/03/16 02:10:05;;;;;;;7.78;1.90;;;11.00;99.90;;;;;;5060139;28;20466;-65
2024/03/16 02:12:32;;;;;;;7.18;1.98;;;11.10;99.90;;;;;;5063491;28;20056;-65
2024/03/16 02:14:59;;;;;;;3.97;1.52;;;11.10;99.90;;;;;;5060991;28;20467;-65
2024/03/16 02:17:27;;;;;;;5.13;1.73;;;11.10;99.90;;;;;;5061270;28;20045;-65
2024/03/16 02:19:54;;;;;;;7.22;1.65;;;11.10;99.90;;;;;;5064870;28;20045;-65
2024/03/16 02:22:21;;;;;;;4.97;1.52;;;11.20;99.90;;;;;;5047171;28;20071;-65
2024/03/16 02:24:47;;;;;;;6.55;1.70;;;11.20;99.90;;;;;;5058093;28;20500;-65
2024/03/16 02:27:16;;;;;;;7.07;2.33;;;11.20;99.90;;;;;;5062362;28;20495;-65
2024/03/16 02:29:43;;;;;;;5.95;1.48;;;11.30;99.90;;;;;;5061078;28;20105;-65
2024/03/16 02:32:10;;;;;;;4.43;1.38;;;11.30;99.90;;;;;;5057665;28;20106;-65
2024/03/16 02:34:37;;;;;;;5.40;1.60;;;11.40;99.90;;;;;;5065847;28;20106;-65
2024/03/16 02:37:05;;;;;;;6.45;1.80;;;11.30;99.90;;;;;;5065864;28;20094;-65
2024/03/16 02:39:32;;;;;;;5.15;1.83;;;11.30;99.90;;;;;;5071359;28;20045;-65
2024/03/16 02:42:04;;;;;;;6.10;1.88;;;11.20;99.90;;;;;;5058380;28;20149;-65
2024/03/16 02:44:31;;;;;;;7.35;1.60;;;11.20;99.90;;;;;;5064633;28;20053;-65
2024/03/16 02:47:00;;;;;;;3.00;1.33;;;11.10;99.90;;;;;;5048109;28;20044;-65
2024/03/16 02:49:27;;;;;;;3.20;1.65;;;11.10;99.90;;;;;;5065207;28;20472;-65
2024/03/16 02:51:54;;;;;;;4.45;1.60;;;11.10;99.90;;;;;;5067938;28;20186;-65
2024/03/16 02:54:21;;;;;;;6.03;1.63;;;11.10;99.90;;;;;;5066043;28;20081;-65
2024/03/16 02:56:49;;;;;;;4.70;1.70;;;11.10;99.90;;;;;;5061753;28;20087;-65
2024/03/16 02:59:15;;;;;;;6.40;1.67;;;11.10;99.90;;;;;;5068168;28;20382;-65
2024/03/16 03:01:42;;;;;;;5.05;1.73;;;11.00;99.90;;;;;;5057858;28;20044;-65
2024/03/16 03:04:09;;;;;;;6.93;1.58;;;11.00;99.90;;;;;;5045372;28;20051;-65
2024/03/16 03:06:38;;;;;;;6.00;1.60;;;11.00;99.90;;;;;;5063531;28;20074;-65
2024/03/16 03:09:09;;;;;;;3.55;1.23;;;10.90;99.90;;;;;;5062606;28;20051;-63
2024/03/16 03:11:38;;;;;;;3.60;1.30;;;10.90;99.90;;;;;;5054484;28;20055;-63
2024/03/16 03:14:08;;;;;;;4.85;1.13;;;10.80;99.90;;;;;;5061293;28;20052;-63
2024/03/16 03:16:35;;;;;;;3.10;1.30;;;10.70;99.90;;;;;;5060186;28;20453;-63
2024/03/16 03:19:02;;;;;;;3.67;1.30;;;10.60;99.90;;;;;;5052712;28;20068;-63
2024/03/16 03:21:29;;;;;;;7.35;1.33;;;10.50;99.90;;;;;;5057752;28;20077;-63
2024/03/16 03:23:58;;;;;;;5.55;1.30;;;10.30;99.90;;;;;;5057753;28;20040;-63
2024/03/16 03:26:28;;;;;;;4.15;1.65;;;10.30;99.90;;;;;;5063207;28;20268;-63
2024/03/16 03:28:56;;;;;;;5.03;1.40;;;10.20;99.90;;;;;;5060120;28;20059;-63
2024/03/16 03:31:24;;;;;;;3.53;1.10;;;10.20;99.90;;;;;;5059657;28;20063;-63
2024/03/16 03:33:50;;;;;;;3.08;1.23;;;10.20;99.90;;;;;;5059893;28;20574;-63
2024/03/16 03:36:18;;;;;;;2.75;1.25;;;10.10;99.90;;;;;;5057346;28;20131;-63
2024/03/16 03:38:44;;;;;;;5.13;1.38;;;10.10;99.90;;;;;;5063946;28;20143;-63
2024/03/16 03:41:11;;;;;;;2.50;1.25;;;10.10;99.90;;;;;;5056936;28;20045;-63
2024/03/16 03:43:39;;;;;;;5.75;1.15;;;10.10;99.90;;;;;;5059101;28;20519;-63
2024/03/16 03:46:13;;;;;;;4.35;1.20;;;10.10;99.90;;;;;;5065190;28;20086;-63
2024/03/16 03:48:49;;;;;;;5.13;1.55;;;10.10;99.90;;;;;;5062517;28;20499;-63
2024/03/16 03:51:16;;;;;;;6.32;1.45;;;10.00;99.90;;;;;;5057267;28;20042;-63
2024/03/16 03:53:43;;;;;;;6.40;1.67;;;10.00;99.90;;;;;;5055575;28;20091;-64
2024/03/16 03:56:10;;;;;;;7.13;1.55;;;10.00;99.90;;;;;;5064385;28;20072;-63
2024/03/16 03:58:37;;;;;;;5.45;1.50;;;10.00;99.90;;;;;;5056641;28;20398;-63
2024/03/16 04:01:04;;;;;;;6.10;1.45;;;10.10;99.90;;;;;;5061594;28;20083;-63
2024/03/16 04:03:31;;;;;;;6.20;1.67;;;10.10;99.90;;;;;;5054121;28;20049;-63
2024/03/16 04:05:58;;;;;;;5.68;1.23;;;10.00;99.90;;;;;;5064433;28;20048;-63
2024/03/16 04:08:25;;;;;;;5.90;1.75;;;10.00;99.90;;;;;;5060863;28;20114;-63
2024/03/16 04:10:52;;;;;;;5.60;1.40;;;10.00;99.90;;;;;;5057906;28;20114;-63
2024/03/16 04:13:18;;;;;;;7.45;1.77;;;10.00;99.90;;;;;;5056975;28;20044;-63
2024/03/16 04:15:45;;;;;;;7.45;1.90;;;10.00;99.90;;;;;;5060931;28;20053;-63
2024/03/16 04:18:12;;;;;;;5.43;1.60;;;10.10;99.90;;;;;;5060253;28;20044;-63
2024/03/16 04:20:39;;;;;;;8.52;1.58;;;10.20;99.90;;;;;;5058017;28;20047;-63
2024/03/16 04:23:08;;;;;;;7.80;1.88;;;10.20;99.90;;;;;;5055083;28;20409;-63
2024/03/16 04:25:34;;;;;;;8.18;2.03;;;10.30;99.90;;;;;;5065364;28;20113;-63
2024/03/16 04:28:01;;;;;;;5.20;1.58;;;10.30;99.90;;;;;;5060637;28;20117;-63
2024/03/16 04:30:28;;;;;;;9.82;1.75;;;10.30;99.90;;;;;;5063884;28;20456;-63
2024/03/16 04:32:55;;;;;;;5.53;1.33;;;10.30;99.90;;;;;;5056875;28;20558;-63
2024/03/16 04:35:21;;;;;;;8.75;2.42;;;10.30;99.90;;;;;;5063474;28;20069;-63
2024/03/16 04:37:48;;;;;;;5.20;1.50;;;10.30;99.90;;;;;;5063310;28;20114;-63
2024/03/16 04:40:16;;;;;;;6.88;1.40;;;10.40;99.90;;;;;;5058225;28;20045;-63
2024/03/16 04:42:43;;;;;;;15.05;2.72;;;10.40;99.90;;;;;;5057260;28;20106;-63
2024/03/16 04:45:10;;;;;;;12.45;1.83;;;10.50;99.90;;;;;;5062099;28;20049;-63
2024/03/16 04:47:37;;;;;;;5.05;1.58;;;10.50;99.90;;;;;;5064901;28;20055;-63
2024/03/16 04:50:05;;;;;;;6.43;1.27;;;10.60;99.90;;;;;;5058509;28;20048;-63
2024/03/16 04:52:32;;;;;;;11.27;1.85;;;10.60;99.90;;;;;;5058313;28;20045;-63
2024/03/16 04:54:58;;;;;;;9.98;1.80;;;10.70;99.90;;;;;;5053972;28;20110;-63
2024/03/16 04:57:25;;;;;;;10.68;1.90;;;10.70;99.90;;;;;;5057386;28;20052;-63
2024/03/16 04:59:52;;;;;;;9.20;1.50;;;10.70;99.90;;;;;;5062955;28;20044;-63
2024/03/16 05:02:19;;;;;;;5.80;1.38;;;10.70;99.90;;;;;;5053551;28;20049;-63
2024/03/16 05:04:46;;;;;;;6.82;1.73;;;10.80;99.90;;;;;;5062042;28;20051;-63
2024/03/16 05:07:12;;;;;;;9.95;1.40;;;10.80;99.90;;;;;;5060395;28;20052;-63
2024/03/16 05:09:39;;;;;;;7.15;1.67;;;10.80;99.90;;;;;;5060895;28;20056;-63
2024/03/16 05:12:06;;;;;;;8.63;1.52;;;10.80;99.90;;;;;;5058459;28;20045;-63
2024/03/16 05:14:33;;;;;;;8.23;1.60;;;10.80;99.90;;;;;;5064474;28;20143;-63
2024/03/16 05:16:59;;;;;;;9.05;2.05;;;10.80;99.90;;;;;;5065055;28;20055;-63
2024/03/16 05:19:26;;;;;;;8.38;1.35;;;10.90;99.90;;;;;;5067847;28;20068;-63
2024/03/16 05:21:53;;;;;;;9.95;2.17;;;10.90;99.90;;;;;;5062531;28;20048;-63
2024/03/16 05:24:20;;;;;;;4.88;1.20;;;10.90;99.90;;;;;;5057819;28;20049;-63
2024/03/16 05:26:47;;;;;;;9.98;1.70;;;10.90;99.90;;;;;;5060125;28;20143;-63
2024/03/16 05:29:14;;;;;;;10.23;1.50;;;10.90;99.90;;;;;;5065998;28;20198;-63
2024/03/16 05:31:57;;;;;;;12.10;1.60;;;10.90;99.90;;;;;;5060717;28;20049;-63
2024/03/16 05:34:24;;;;;;;5.13;1.58;;;10.80;99.90;;;;;;5063448;28;20049;-63
2024/03/16 05:36:51;;;;;;;10.18;2.35;;;10.80;99.90;;;;;;5067378;28;20480;-63
2024/03/16 05:39:19;;;;;;;6.97;1.23;;;10.80;99.90;;;;;;5048034;28;20136;-63
2024/03/16 05:41:45;;;;;;;8.93;2.08;;;10.80;99.90;;;;;;5056264;28;20056;-63
2024/03/16 05:44:12;;;;;;;10.02;2.05;;;10.80;99.90;;;;;;5061660;28;20056;-63
2024/03/16 05:46:39;;;;;;;10.52;1.73;;;10.80;99.90;;;;;;5064146;28;20056;-63
2024/03/16 05:49:05;;;;;;;8.55;2.83;;;10.90;99.90;;;;;;5064133;28;20105;-63
2024/03/16 05:51:32;;;;;;;7.32;1.58;;;10.90;99.90;;;;;;5059817;28;20551;-63
2024/03/16 05:53:59;;;;;;;9.25;1.70;;;10.90;99.90;;;;;;5061179;28;20040;-63
2024/03/16 05:56:26;;;;;;;10.45;1.65;;;10.90;99.90;;;;;;5060369;28;20049;-63
2024/03/16 05:58:53;;;;;;;5.25;1.45;;;10.90;99.90;;;;;;5062204;28;20049;-63
2024/03/16 06:01:19;;;;;;;6.70;1.60;;;11.00;99.90;;;;;;5058900;28;20048;-63
2024/03/16 06:03:49;;;;;;;7.22;1.75;;;11.00;99.90;;;;;;5055750;28;20063;-63
2024/03/16 06:06:16;;;;;;;12.55;1.52;;;11.00;99.90;;;;;;5060786;28;20048;-63
2024/03/16 06:08:44;;;;;;;6.60;1.80;;;11.00;99.90;;;;;;5058979;28;20056;-63
2024/03/16 06:11:10;;;;;;;8.77;1.92;;;11.10;99.90;;;;;;5063586;28;20040;-63
2024/03/16 06:13:37;;;;;;;10.15;2.53;;;11.10;99.90;;;;;;5059095;28;20048;-63
2024/03/16 06:16:05;;;;;;;8.27;2.00;;;11.10;99.90;;;;;;5057520;28;20451;-63
2024/03/16 06:18:32;;;;;;;8.30;1.75;;;11.10;99.90;;;;;;5055563;28;20052;-64
2024/03/16 06:20:58;;;;;;;11.98;2.55;;;11.10;99.90;;;;;;5063570;28;20056;-64
2024/03/16 06:23:25;;;;;;;8.85;1.60;;;11.10;99.90;;;;;;5064167;28;20059;-64
2024/03/16 06:25:53;;;;;;;8.13;1.30;;;11.10;99.90;;;;;;5061186;28;20057;-64
2024/03/16 06:28:21;;;;;;;10.32;1.83;;;11.10;99.90;;;;;;5061699;28;20048;-64
2024/03/16 06:30:49;;;;;;;8.48;1.73;;;11.10;99.90;;;;;;5053919;23;20054;-66
2024/03/16 06:33:27;;;;;;;10.60;1.50;;;11.10;99.90;;;;;;5024050;28;20096;-66
2024/03/16 06:35:54;;;;;;;4.35;1.10;;;11.10;99.90;;;;;;5026607;28;20502;-67
2024/03/16 06:38:21;;;;;;;10.50;1.45;;;11.10;99.90;;;;;;5027421;28;20045;-66
2024/03/16 06:40:49;;;;;;;7.32;1.75;;;11.10;99.90;;;;;;5024124;28;20103;-66
2024/03/16 06:43:16;;;;;;;9.13;1.80;;;11.10;99.90;;;;;;5024749;28;20497;-66
2024/03/16 06:45:43;;;;;;;10.35;1.75;;;11.10;99.90;;;;;;5031301;28;20060;-66
2024/03/16 06:48:09;;;;;;;10.60;1.60;;;11.20;99.90;;;;;;5024850;28;20065;-66
2024/03/16 06:50:37;;;;;;;6.13;1.30;;;11.20;99.90;;;;;;5027814;28;20053;-66
2024/03/16 06:53:06;;;;;;;6.93;2.17;;;11.10;99.90;;;;;;5027025;28;20041;-66
2024/03/16 06:55:33;;;;;;;9.57;4.00;;;11.10;99.90;;;;;;5030010;28;20461;-66
2024/03/16 06:57:59;;;;;;;11.30;3.08;;;11.20;99.90;;;;;;5032053;28;20048;-66
2024/03/16 07:00:26;;;;;;;6.85;1.88;;;11.20;99.90;;;;;;5027402;28;20133;-66
2024/03/16 07:02:53;;;;;;;8.82;2.20;;;11.40;99.90;;;;;;5031339;28;20049;-66
2024/03/16 07:05:20;;;;;;;7.63;1.40;;;11.50;99.90;;;;;;5029116;28;20048;-67
2024/03/16 07:07:47;;;;;;;9.88;2.20;;;11.50;99.90;;;;;;5031825;28;20053;-67
2024/03/16 07:10:14;;;;;;;8.13;1.70;;;11.50;99.90;;;;;;5012864;28;20092;-66
2024/03/16 07:12:41;;;;;;;8.95;1.80;;;11.40;99.90;;;;;;5027687;28;20086;-67
2024/03/16 07:15:09;;;;;;;9.23;1.70;;;11.40;99.90;;;;;;5024943;28;20152;-67
2024/03/16 07:17:36;;;;;;;10.70;1.63;;;11.40;99.90;;;;;;5022998;28;20049;-65
2024/03/16 07:20:03;;;;;;;8.00;1.40;;;11.40;99.90;;;;;;5007187;28;20076;-64
2024/03/16 07:22:29;;;;;;;6.95;1.50;;;11.40;99.90;;;;;;5029886;28;20497;-65
2024/03/16 07:24:56;;;;;;;5.90;1.35;;;11.40;99.90;;;;;;5023966;28;20054;-65
2024/03/16 07:27:23;;;;;;;8.73;1.58;;;11.40;99.90;;;;;;5023963;28;20406;-65
2024/03/16 07:29:51;;;;;;;7.97;1.58;;;11.30;99.90;;;;;;5025896;28;20045;-65
2024/03/16 07:32:18;;;;;;;8.18;1.92;;;11.30;99.90;;;;;;5027169;28;20140;-65
2024/03/16 07:34:45;;;;;;;10.35;1.80;;;11.30;99.90;;;;;;5025696;28;20092;-65
2024/03/16 07:37:14;;;;;;;8.30;1.48;;;11.30;99.90;;;;;;5021299;28;20045;-65
2024/03/16 07:39:41;;;;;;;6.78;1.85;;;11.40;99.90;;;;;;5026324;28;20498;-65
2024/03/16 07:42:08;;;;;;;16.15;2.45;;;11.40;99.90;;;;;;5023493;28;20074;-65
2024/03/16 07:44:35;;;;;;;15.05;2.65;;;11.70;99.90;;;;;;5026862;28;20123;-65
2024/03/16 07:47:01;;;;;;;6.90;2.05;;;11.90;99.90;;;;;;5024051;28;20049;-65
2024/03/16 07:49:28;;;;;;;5.50;1.63;;;12.20;99.90;;;;;;5022703;28;20057;-65
2024/03/16 07:51:55;;;;;;;5.50;1.60;;;12.40;99.90;;;;;;5021404;28;20096;-65
2024/03/16 07:54:22;;;;;;;5.50;1.30;;;12.50;99.90;;;;;;5022286;28;20108;-65
2024/03/16 07:56:49;;;;;;;8.95;1.52;;;12.50;99.90;;;;;;5025313;28;20042;-65
2024/03/16 07:59:16;;;;;;;9.55;1.48;;;12.60;99.90;;;;;;5022748;28;20038;-65
2024/03/16 08:01:44;;;;;;;6.60;1.58;;;12.50;99.90;;;;;;5018751;28;20438;-66
2024/03/16 08:04:10;;;;;;;7.75;1.20;;;12.40;99.90;;;;;;5019915;28;20120;-65
2024/03/16 08:06:37;;;;;;;9.07;2.45;;;12.40;99.90;;;;;;5022431;28;20132;-65
2024/03/16 08:09:08;;;;;;;6.28;1.40;;;12.40;99.90;;;;;;5025655;28;20049;-65
2024/03/16 08:11:35;;;;;;;10.82;1.95;;;12.40;99.90;;;;;;5026595;28;20073;-65
2024/03/16 08:14:05;;;;;;;9.50;1.70;;;12.40;99.90;;;;;;5026196;28;20052;-66
2024/03/16 08:16:32;;;;;;;5.75;1.67;;;12.40;99.90;;;;;;5023864;28;20046;-65
2024/03/16 08:18:59;;;;;;;7.07;1.65;;;12.40;99.90;;;;;;5027047;28;20091;-65
2024/03/16 08:21:26;;;;;;;8.00;1.95;;;12.30;99.90;;;;;;5026209;28;20387;-65
2024/03/16 08:23:52;;;;;;;8.98;1.70;;;12.40;99.90;;;;;;5026791;28;20394;-65
2024/03/16 08:26:19;;;;;;;6.25;1.48;;;12.50;99.90;;;;;;5026461;28;20052;-65
2024/03/16 08:28:46;;;;;;;8.88;2.05;;;12.40;99.90;;;;;;5006830;28;20053;-65
2024/03/16 08:31:12;;;;;;;7.80;1.65;;;12.40;99.90;;;;;;5028023;28;20498;-65
2024/03/16 08:33:39;;;;;;;12.82;2.08;;;12.40;99.90;;;;;;5026468;28;20049;-65
2024/03/16 08:36:06;;;;;;;6.18;1.67;;;12.40;99.90;;;;;;5026321;28;20072;-65
2024/03/16 08:38:33;;;;;;;9.27;1.55;;;12.40;99.90;;;;;;5028820;28;20325;-65
2024/03/16 08:41:00;;;;;;;11.10;2.03;;;12.40;99.90;;;;;;5031958;28;20045;-65
2024/03/16 08:43:30;;;;;;;8.25;1.60;;;12.40;99.90;;;;;;5034208;28;20493;-67
2024/03/16 08:46:00;;;;;;;9.95;1.80;;;12.40;99.90;;;;;;5033173;28;20477;-66
2024/03/16 08:48:27;;;;;;;8.35;2.00;;;12.40;99.90;;;;;;5033329;28;20109;-65
2024/03/16 08:50:57;;;;;;;11.77;1.67;;;12.40;99.90;;;;;;5024938;28;20045;-65
2024/03/16 08:53:23;;;;;;;8.27;1.60;;;12.50;99.90;;;;;;5025901;28;20159;-65
2024/03/16 08:55:51;;;;;;;7.22;1.52;;;12.50;99.90;;;;;;5028823;28;20042;-65
2024/03/16 08:58:17;;;;;;;7.80;2.10;;;12.60;99.90;;;;;;5027126;28;20038;-65
2024/03/16 09:00:44;;;;;;;9.63;1.70;;;12.80;99.90;;;;;;5029098;28;20046;-65
2024/03/16 09:03:11;;;;;;;10.93;2.78;;;12.90;99.90;;;;;;5027402;28;20100;-65
2024/03/16 09:05:38;;;;;;;10.48;2.03;;;13.00;99.90;;;;;;5026226;28;20052;-65
2024/03/16 09:08:05;;;;;;;9.32;2.10;;;13.00;99.90;;;;;;5028929;28;20502;-64
2024/03/16 09:10:32;;;;;;;7.60;1.80;;;13.10;99.90;;;;;;5028393;28;20497;-64
2024/03/16 09:12:58;;;;;;;5.80;1.80;;;13.20;99.90;;;;;;5027720;28;20042;-65
2024/03/16 09:15:25;;;;;;;9.05;1.80;;;13.20;99.90;;;;;;5030021;28;20053;-64
2024/03/16 09:17:52;;;;;;;4.93;1.45;;;13.30;99.90;;;;;;5029287;28;20049;-63
2024/03/16 09:20:19;;;;;;;10.13;2.13;;;13.40;99.90;;;;;;5028979;28;20041;-65
2024/03/16 09:22:47;;;;;;;8.02;1.77;;;13.70;99.90;;;;;;5029718;28;20139;-65
2024/03/16 09:25:14;;;;;;;12.52;2.83;;;14.00;99.90;;;;;;5030165;28;20049;-64
2024/03/16 09:27:41;;;;;;;7.63;2.10;;;14.30;99.90;;;;;;5028609;28;20050;-64
2024/03/16 09:30:11;;;;;;;10.43;1.90;;;14.30;99.90;;;;;;5022900;28;20053;-64
2024/03/16 09:32:38;;;;;;;6.90;1.60;;;14.30;99.90;;;;;;5024080;28;20041;-65
2024/03/16 09:35:06;;;;;;;7.97;1.75;;;14.50;99.90;;;;;;5027858;28;20073;-65
2024/03/16 09:37:33;;;;;;;7.32;1.67;;;14.70;99.90;;;;;;5028051;28;20067;-66
2024/03/16 09:40:00;;;;;;;6.05;1.70;;;14.70;99.90;;;;;;5027918;28;20068;-65
2024/03/16 09:42:28;;;;;;;3.90;1.50;;;14.90;99.90;;;;;;5008963;28;20151;-65
2024/03/16 09:44:57;;;;;;;10.52;2.13;;;15.00;99.90;;;;;;5026717;28;20077;-65
2024/03/16 09:47:25;;;;;;;7.70;1.55;;;14.80;99.90;;;;;;5011991;28;20064;-65
2024/03/16 09:49:51;;;;;;;9.98;2.35;;;14.70;99.90;;;;;;5011154;28;20060;-65
2024/03/16 09:52:18;;;;;;;7.65;1.48;;;14.50;99.90;;;;;;5006876;28;20054;-65
2024/03/16 09:54:44;;;;;;;9.00;1.73;;;14.40;99.90;;;;;;5006604;28;20049;-64
2024/03/16 09:57:17;;;;;;;5.30;2.55;;;14.40;99.90;;;;;;5007654;28;20503;-65
2024/03/16 09:59:48;;;;;;;6.65;1.40;;;14.60;99.90;;;;;;5010456;28;20052;-65
2024/03/16 10:02:21;;;;;;;3.95;1.10;;;14.60;99.90;;;;;;5011263;28;20049;-65
2024/03/16 10:04:48;;;;;;;7.45;1.65;;;14.60;99.90;;;;;;5011303;28;20057;-65
2024/03/16 10:07:14;;;;;;;7.53;1.55;;;14.80;99.90;;;;;;5009807;28;20057;-64
2024/03/16 10:09:53;;;;;;;5.18;1.20;;;14.90;99.90;;;;;;5012665;28;20049;-65
2024/03/16 10:12:23;;;;;;;7.55;2.03;;;14.70;99.90;;;;;;5020470;28;20041;-65
2024/03/16 10:15:21;;;;;;;6.40;1.60;;;14.80;99.90;;;;;;5009868;28;20088;-65
2024/03/16 10:17:49;;;;;;;3.80;1.02;;;14.80;99.90;;;;;;5007761;28;20464;-65
2024/03/16 10:20:21;;;;;;;5.65;1.10;;;14.80;99.90;;;;;;5008179;28;20050;-65
2024/03/16 10:22:48;;;;;;;5.03;1.27;;;15.00;99.90;;;;;;5011055;28;20518;-65
2024/03/16 10:25:18;;;;;;;3.00;1.05;;;14.80;99.90;;;;;;5010102;28;20056;-65
2024/03/16 10:27:45;;;;;;;6.78;1.25;;;14.50;99.90;;;;;;4990256;28;20053;-65
2024/03/16 10:30:15;;;;;;;2.42;0.90;;;14.50;99.90;;;;;;5010181;28;20485;-65
2024/03/16 10:32:54;;;;;;;7.30;1.20;;;14.70;99.90;;;;;;5008965;28;20123;-65
2024/03/16 10:35:26;;;;;;;7.43;1.20;;;14.80;99.90;;;;;;5009186;28;20046;-65
2024/03/16 10:37:52;;;;;;;3.42;1.08;;;14.70;99.90;;;;;;5010331;28;20089;-65
2024/03/16 10:40:21;;;;;;;4.18;1.25;;;14.60;99.90;;;;;;4996091;28;20196;-65
2024/03/16 10:42:50;;;;;;;5.28;1.45;;;14.60;99.90;;;;;;5008083;28;20119;-65
2024/03/16 10:45:17;;;;;;;3.30;1.17;;;14.80;99.90;;;;;;5009107;28;20041;-64
2024/03/16 10:47:44;;;;;;;5.85;1.85;;;14.70;99.90;;;;;;5009280;28;20053;-65
2024/03/16 10:50:10;;;;;;;5.45;1.50;;;14.60;99.90;;;;;;5008937;28;20277;-63
2024/03/16 10:52:43;;;;;;;4.55;1.48;;;14.80;99.90;;;;;;5006953;28;20045;-66
2024/03/16 10:55:15;;;;;;;5.85;1.20;;;15.00;99.90;;;;;;5006212;28;20072;-63
2024/03/16 10:57:42;;;;;;;4.22;1.65;;;15.10;99.90;;;;;;5025408;28;20073;-64
2024/03/16 11:00:44;;;;;;;6.88;1.55;;;15.00;99.90;;;;;;5006028;28;20068;-64
2024/03/16 11:03:22;;;;;;;4.35;1.52;;;14.90;99.90;;;;;;5006864;28;20061;-64
2024/03/16 11:05:54;;;;;;;3.90;1.48;;;14.90;99.90;;;;;;5008067;28;20095;-64
2024/03/16 11:08:45;;;;;;;3.00;1.00;;;14.90;99.90;;;;;;5008294;28;20107;-64
2024/03/16 11:11:32;;;;;;;5.25;1.20;;;15.00;99.90;;;;;;4998404;28;20053;-64
2024/03/16 11:14:05;;;;;;;4.47;0.88;;;15.30;99.90;;;;;;5007025;28;20053;-64
2024/03/16 11:16:35;;;;;;;3.72;1.55;;;15.60;99.90;;;;;;5007722;28;20406;-64
2024/03/16 11:19:07;;;;;;;3.25;0.88;;;15.80;99.90;;;;;;5008685;28;20033;-64
2024/03/16 11:21:36;;;;;;;4.47;1.23;;;15.90;99.90;;;;;;5007506;28;20060;-65
2024/03/16 11:24:04;;;;;;;7.13;1.52;;;15.90;99.90;;;;;;5008265;28;20414;-64
2024/03/16 11:26:36;;;;;;;5.38;1.00;;;15.90;99.90;;;;;;5009418;28;20049;-64
2024/03/16 11:29:22;;;;;;;5.60;0.90;;;16.00;99.90;;;;;;5008847;28;20049;-63
2024/03/16 11:31:53;;;;;;;2.47;0.98;;;16.10;99.90;;;;;;5004587;28;20046;-65
2024/03/16 11:34:20;;;;;;;5.75;1.40;;;16.00;99.90;;;;;;5009449;28;20101;-65
2024/03/16 11:36:50;;;;;;;2.88;0.90;;;15.90;99.90;;;;;;5009379;28;20041;-65
2024/03/16 11:39:29;;;;;;;5.43;1.13;;;16.00;99.90;;;;;;5024394;28;20056;-65
2024/03/16 11:41:58;;;;;;;4.67;0.90;;;16.20;99.90;;;;;;5008912;28;20115;-65
2024/03/16 11:44:24;;;;;;;4.90;1.05;;;16.10;99.90;;;;;;5008215;28;20173;-65
2024/03/16 11:46:53;;;;;;;3.90;1.05;;;16.00;99.90;;;;;;5008837;28;20546;-65
2024/03/16 11:49:21;;;;;;;5.03;0.80;;;16.00;99.90;;;;;;5005614;28;20061;-65
2024/03/16 11:51:48;;;;;;;5.32;1.00;;;16.10;99.90;;;;;;5007855;28;20058;-65
2024/03/16 11:54:15;;;;;;;3.53;0.88;;;16.00;99.90;;;;;;5007258;28;20427;-65
2024/03/16 11:56:41;;;;;;;3.10;0.90;;;16.00;99.90;;;;;;5003970;28;20464;-65
2024/03/16 11:59:13;;;;;;;1.88;0.75;;;16.20;99.90;;;;;;5008931;28;20445;-65
2024/03/16 12:01:42;;;;;;;2.15;0.70;;;16.20;99.90;;;;;;5002818;28;20494;-65
2024/03/16 12:04:10;;;;;;;3.17;0.80;;;16.30;99.90;;;;;;5006006;28;20053;-65
2024/03/16 12:06:37;;;;;;;2.25;0.43;;;16.20;99.90;;;;;;5004513;28;20498;-65
2024/03/16 12:09:03;;;;;;;3.00;0.63;;;16.00;99.90;;;;;;4992221;28;20061;-65
2024/03/16 12:11:29;;;;;;;2.47;0.70;;;15.90;99.90;;;;;;5007626;28;20422;-65
2024/03/16 12:14:09;;;;;;;2.72;0.70;;;15.80;99.90;;;;;;5004254;28;20057;-65
2024/03/16 12:16:39;;;;;;;3.33;0.80;;;15.80;99.90;;;;;;5006589;28;20237;-65
2024/03/16 12:19:11;;;;;;;1.83;0.60;;;15.70;99.90;;;;;;5003972;28;20042;-63
2024/03/16 12:21:41;;;;;;;3.85;1.20;;;15.90;99.90;;;;;;5007402;28;20053;-65
2024/03/16 12:24:09;;;;;;;;;;;16.00;99.90;;;;;;5005852;28;20053;-65
2024/03/16 12:26:38;;;;;;;1.88;0.90;;;16.30;99.90;;;;;;5007679;28;19925;-65
2024/03/16 12:29:16;;;;;;;3.22;0.93;;;16.50;99.90;;;;;;5006347;28;20045;-65
2024/03/16 12:31:45;;;;;;;2.70;0.60;;;16.60;99.90;;;;;;5017501;23;20046;-66
2024/03/16 12:34:12;;;;;;;1.50;0.60;;;16.70;99.90;;;;;;4990279;28;20054;-66
2024/03/16 12:36:38;;;;;;;2.53;0.70;;;16.60;99.90;;;;;;4985489;28;20054;-66
2024/03/16 12:39:10;;;;;;;3.40;0.95;;;16.80;99.90;;;;;;4987792;28;20108;-66
2024/03/16 12:41:37;;;;;;;3.03;0.80;;;17.10;99.90;;;;;;4981507;28;20051;-66
2024/03/16 12:44:03;;;;;;;1.80;0.60;;;17.00;99.90;;;;;;4969642;28;20054;-66
2024/03/16 12:46:31;;;;;;;1.33;0.40;;;16.70;99.90;;;;;;4968555;28;20062;-66
2024/03/16 12:48:57;;;;;;;2.85;0.80;;;16.60;99.90;;;;;;4968321;28;20054;-66
2024/03/16 12:51:23;;;;;;;3.00;1.08;;;16.50;99.90;;;;;;4968668;28;20054;-66